Time;durP1;ratioP1;P1;durP2;ratioP2;P2;SDS_P1;SDS_P2;PMS_P1;PMS_P2;Temp;Humidity;BMP_temperature;BMP_pressure;BME280_temperature;BME280_humidity;BME280_pressure;Samples;Min_cycle;Max_cycle;Signal;HPM_P1;HPM_P2
2023/12/10 00:01:06;;;;;;;21.63;6.07;;;;;;;8.62;100.00;99705.75;4837279;29;20054;-72
2023/12/10 00:03:54;;;;;;;29.08;6.53;;;;;;;8.62;100.00;99709.25;4823695;29;20069;-72
2023/12/10 00:06:42;;;;;;;24.38;5.97;;;;;;;8.61;100.00;99707.66;4824589;29;20046;-71
2023/12/10 00:09:30;;;;;;;28.20;6.47;;;;;;;8.63;100.00;99693.78;4834671;29;20054;-72
2023/12/10 00:12:18;;;;;;;29.23;6.10;;;;;;;8.63;100.00;99705.44;4836723;29;20129;-72
2023/12/10 00:15:07;;;;;;;27.13;6.82;;;;;;;8.64;100.00;99701.66;4824746;29;20058;-71
2023/12/10 00:17:56;;;;;;;24.05;5.50;;;;;;;8.69;100.00;99703.53;4827863;29;20050;-72
2023/12/10 00:20:44;;;;;;;25.75;6.85;;;;;;;8.72;100.00;99711.09;4845340;29;20073;-71
2023/12/10 00:23:32;;;;;;;30.55;7.00;;;;;;;8.70;100.00;99719.50;4836844;29;20103;-72
2023/12/10 00:26:20;;;;;;;29.13;6.40;;;;;;;8.73;100.00;99718.13;4828743;29;20065;-71
2023/12/10 00:29:08;;;;;;;23.50;6.38;;;;;;;8.69;100.00;99717.09;4845882;29;20419;-72
2023/12/10 00:31:56;;;;;;;23.23;6.43;;;;;;;8.73;100.00;99737.16;4845415;29;20160;-72
2023/12/10 00:34:44;;;;;;;24.10;6.53;;;;;;;8.73;100.00;99742.56;4843862;29;20050;-72
2023/12/10 00:37:32;;;;;;;28.67;6.65;;;;;;;8.76;100.00;99733.88;4842850;29;20054;-71
2023/12/10 00:40:21;;;;;;;26.27;7.00;;;;;;;8.78;100.00;99736.31;4826191;29;20058;-72
2023/12/10 00:43:10;;;;;;;22.73;6.43;;;;;;;8.77;100.00;99742.84;4814004;29;20530;-72
2023/12/10 00:45:58;;;;;;;34.45;7.53;;;;;;;8.77;100.00;99749.06;4826698;29;20050;-72
2023/12/10 00:48:46;;;;;;;25.23;6.63;;;;;;;8.74;100.00;99733.34;4827753;29;20053;-72
2023/12/10 00:51:35;;;;;;;28.02;6.30;;;;;;;8.72;100.00;99751.81;4826527;29;20058;-72
2023/12/10 00:54:23;;;;;;;23.13;5.47;;;;;;;8.72;100.00;99757.25;4826354;29;20050;-71
2023/12/10 00:57:12;;;;;;;25.00;5.50;;;;;;;8.71;100.00;99745.59;4827033;29;20057;-72
2023/12/10 01:00:00;;;;;;;29.55;6.80;;;;;;;8.74;100.00;99752.34;4830250;29;20050;-72
2023/12/10 01:02:50;;;;;;;27.52;6.82;;;;;;;8.73;100.00;99775.16;4844874;29;20134;-72
2023/12/10 01:05:38;;;;;;;22.77;6.07;;;;;;;8.71;100.00;99778.19;4832761;29;20191;-72
2023/12/10 01:08:26;;;;;;;20.98;5.55;;;;;;;8.69;100.00;99771.41;4828567;29;20046;-72
2023/12/10 01:11:14;;;;;;;23.65;5.93;;;;;;;8.67;100.00;99776.31;4841370;29;20302;-72
2023/12/10 01:14:03;;;;;;;32.05;6.53;;;;;;;8.64;100.00;99771.44;4845464;29;20495;-72
2023/12/10 01:16:51;;;;;;;25.48;5.88;;;;;;;8.66;100.00;99769.22;4837824;29;20106;-71
2023/12/10 01:19:39;;;;;;;22.42;5.32;;;;;;;8.61;100.00;99766.56;4825587;29;20191;-74
2023/12/10 01:22:28;;;;;;;25.23;5.80;;;;;;;8.58;100.00;99777.97;4825414;29;20077;-70
2023/12/10 01:25:17;;;;;;;19.50;5.25;;;;;;;8.59;100.00;99782.34;4813377;29;20046;-72
2023/12/10 01:28:05;;;;;;;24.85;5.93;;;;;;;8.61;100.00;99771.97;4826588;29;20472;-72
2023/12/10 01:30:53;;;;;;;23.98;5.85;;;;;;;8.61;100.00;99766.56;4826706;29;20042;-72
2023/12/10 01:33:41;;;;;;;18.33;4.72;;;;;;;8.62;100.00;99777.16;4845765;29;20058;-77
2023/12/10 01:36:30;;;;;;;24.27;6.13;;;;;;;8.64;100.00;99798.59;4842122;29;20426;-72
2023/12/10 01:39:19;;;;;;;24.45;6.43;;;;;;;8.65;100.00;99800.22;4831110;29;20045;-73
2023/12/10 01:42:08;;;;;;;25.17;6.07;;;;;;;8.63;100.00;99807.81;4844434;29;20050;-71
2023/12/10 01:44:56;;;;;;;23.17;5.55;;;;;;;8.63;100.00;99818.69;4845047;29;20054;-71
2023/12/10 01:47:46;;;;;;;23.15;5.82;;;;;;;8.68;100.00;99810.50;4838461;29;20419;-72
2023/12/10 01:50:35;;;;;;;28.85;5.78;;;;;;;8.65;100.00;99827.38;4825703;29;20055;-72
2023/12/10 01:53:23;;;;;;;25.13;5.93;;;;;;;8.64;100.00;99820.31;4824153;29;20050;-71
2023/12/10 01:56:12;;;;;;;21.05;5.25;;;;;;;8.63;100.00;99824.09;4825005;29;20087;-71
2023/12/10 01:59:00;;;;;;;26.83;6.03;;;;;;;8.62;100.00;99834.16;4810872;29;20522;-71
2023/12/10 02:01:48;;;;;;;20.90;5.30;;;;;;;8.61;100.00;99818.97;4825135;29;20053;-71
2023/12/10 02:04:36;;;;;;;30.67;6.65;;;;;;;8.58;100.00;99818.72;4843434;29;20058;-71
2023/12/10 02:07:24;;;;;;;21.15;4.95;;;;;;;8.57;100.00;99819.81;4823739;29;20059;-71
2023/12/10 02:10:12;;;;;;;22.92;6.00;;;;;;;8.52;100.00;99813.31;4823653;29;20042;-70
2023/12/10 02:13:02;;;;;;;26.55;6.13;;;;;;;8.50;100.00;99810.06;4834929;29;20087;-71
2023/12/10 02:15:50;;;;;;;16.33;5.10;;;;;;;8.51;100.00;99828.00;4826471;29;20046;-71
2023/12/10 02:18:38;;;;;;;22.40;5.50;;;;;;;8.47;100.00;99809.81;4839065;29;20046;-71
2023/12/10 02:21:30;;;;;;;24.92;6.15;;;;;;;8.47;100.00;99821.47;4842608;29;20053;-71
2023/12/10 02:24:25;;;;;;;22.90;5.80;;;;;;;8.47;100.00;99826.91;4842687;29;20110;-74
2023/12/10 02:27:13;;;;;;;;;;;;;;;8.54;100.00;99823.91;4838190;29;20058;-71
2023/12/10 02:30:02;;;;;;;20.08;5.70;;;;;;;8.50;100.00;99842.63;4832592;29;19924;-71
2023/12/10 02:32:50;;;;;;;23.67;4.85;;;;;;;8.49;100.00;99808.44;4842545;29;20103;-71
2023/12/10 02:35:39;;;;;;;20.27;5.47;;;;;;;8.50;100.00;99839.91;4842222;29;20468;-71
2023/12/10 02:38:27;;;;;;;21.45;5.72;;;;;;;8.49;100.00;99835.59;4840542;29;20134;-71
2023/12/10 02:41:15;;;;;;;19.67;5.32;;;;;;;8.49;100.00;99857.31;4827744;29;20533;-71
2023/12/10 02:44:03;;;;;;;19.05;5.18;;;;;;;8.46;100.00;99868.69;4822902;29;20061;-71
2023/12/10 02:46:51;;;;;;;17.58;4.80;;;;;;;8.47;100.00;99853.25;4823104;29;20634;-71
2023/12/10 02:49:39;;;;;;;18.48;4.88;;;;;;;8.47;100.00;99859.50;4833476;29;20118;-72
2023/12/10 02:52:27;;;;;;;21.60;4.85;;;;;;;8.47;100.00;99854.06;4841195;29;20053;-72
2023/12/10 02:55:16;;;;;;;20.77;5.00;;;;;;;8.47;100.00;99854.06;4841818;29;20062;-71
2023/12/10 02:58:04;;;;;;;21.83;5.40;;;;;;;8.49;100.00;99851.88;4835900;29;20050;-72
2023/12/10 03:00:54;;;;;;;19.83;5.13;;;;;;;8.49;100.00;99862.75;4836131;29;20062;-70
2023/12/10 03:03:42;;;;;;;21.80;5.20;;;;;;;8.46;100.00;99848.91;4834403;29;20190;-71
2023/12/10 03:06:30;;;;;;;24.52;5.40;;;;;;;8.46;100.00;99859.75;4840361;29;20061;-71
2023/12/10 03:09:18;;;;;;;21.08;5.13;;;;;;;8.50;100.00;99864.34;4842160;29;20142;-71
2023/12/10 03:12:06;;;;;;;21.55;5.00;;;;;;;8.46;100.00;99863.28;4842317;29;20643;-71
2023/12/10 03:14:54;;;;;;;17.95;4.45;;;;;;;8.45;100.00;99877.94;4841587;29;20069;-71
2023/12/10 03:17:42;;;;;;;19.52;4.93;;;;;;;8.47;100.00;99870.34;4830535;29;20135;-72
2023/12/10 03:20:30;;;;;;;18.13;4.82;;;;;;;8.47;100.00;99854.06;4823891;29;20141;-71
2023/12/10 03:23:19;;;;;;;18.38;4.70;;;;;;;8.50;100.00;99871.69;4824283;29;20092;-71
2023/12/10 03:26:06;;;;;;;18.00;5.32;;;;;;;8.49;100.00;99865.47;4823823;29;20494;-71
2023/12/10 03:28:54;;;;;;;18.75;5.25;;;;;;;8.49;100.00;99876.31;4837141;29;20085;-72
2023/12/10 03:31:42;;;;;;;18.15;5.10;;;;;;;8.51;100.00;99862.44;4843298;29;20095;-71
2023/12/10 03:34:30;;;;;;;23.38;4.97;;;;;;;8.57;100.00;99860.53;4842783;29;20058;-72
2023/12/10 03:37:19;;;;;;;20.15;4.65;;;;;;;8.59;100.00;99883.59;4842600;29;20098;-71
2023/12/10 03:40:07;;;;;;;22.85;5.40;;;;;;;8.68;100.00;99887.38;4837533;29;20138;-71
2023/12/10 03:42:57;;;;;;;18.02;4.53;;;;;;;8.69;100.00;99877.31;4831477;29;20083;-64
2023/12/10 03:45:45;;;;;;;22.10;5.18;;;;;;;8.68;100.00;99881.09;4842870;29;20058;-64
2023/12/10 03:48:33;;;;;;;18.42;4.60;;;;;;;8.74;100.00;99888.16;4851118;29;20043;-71
2023/12/10 03:51:21;;;;;;;17.58;4.72;;;;;;;8.76;100.00;99885.97;4813418;29;20050;-70
2023/12/10 03:54:09;;;;;;;16.65;4.82;;;;;;;8.75;100.00;99887.03;4840686;29;20058;-66
2023/12/10 03:56:57;;;;;;;24.92;5.00;;;;;;;8.76;100.00;99910.41;4841585;29;20141;-66
2023/12/10 03:59:45;;;;;;;24.02;5.80;;;;;;;8.73;100.00;99890.06;4834847;29;20058;-71
2023/12/10 04:02:33;;;;;;;22.10;5.40;;;;;;;8.73;100.00;99887.34;4823636;29;20070;-71
2023/12/10 04:05:21;;;;;;;22.63;5.32;;;;;;;8.76;100.00;99907.69;4824073;29;20416;-71
2023/12/10 04:08:10;;;;;;;33.28;5.05;;;;;;;8.78;100.00;99913.69;4822594;29;20054;-71
2023/12/10 04:10:58;;;;;;;19.60;5.18;;;;;;;8.79;100.00;99915.28;4823527;29;20055;-71
2023/12/10 04:13:46;;;;;;;20.83;4.85;;;;;;;8.80;100.00;99921.53;4839659;29;20050;-71
2023/12/10 04:16:34;;;;;;;18.20;4.28;;;;;;;8.82;100.00;99886.75;4842286;29;20181;-71
2023/12/10 04:19:22;;;;;;;21.92;5.55;;;;;;;8.80;100.00;99903.31;4829749;29;20542;-72
2023/12/10 04:22:10;;;;;;;17.20;4.88;;;;;;;8.83;100.00;99926.41;4841692;29;20057;-72
2023/12/10 04:24:58;;;;;;;26.85;5.82;;;;;;;8.83;100.00;99921.00;4840572;29;20160;-72
2023/12/10 04:27:46;;;;;;;16.08;4.97;;;;;;;8.84;100.00;99909.81;4840913;29;20070;-70
2023/12/10 04:30:34;;;;;;;18.88;5.07;;;;;;;8.87;100.00;99941.84;4839672;29;20061;-72
2023/12/10 04:33:22;;;;;;;18.60;4.93;;;;;;;8.87;100.00;99936.44;4841969;29;20050;-71
2023/12/10 04:36:11;;;;;;;21.17;5.03;;;;;;;8.87;100.00;99949.19;4840788;29;20049;-71
2023/12/10 04:39:00;;;;;;;19.60;5.00;;;;;;;8.87;100.00;99966.31;4828698;29;20046;-74
2023/12/10 04:41:48;;;;;;;24.90;5.75;;;;;;;8.82;100.00;99958.19;4840883;29;20475;-71
2023/12/10 04:44:36;;;;;;;19.25;4.90;;;;;;;8.86;100.00;99942.16;4827982;29;20136;-71
2023/12/10 04:47:24;;;;;;;22.58;4.90;;;;;;;8.87;100.00;99979.09;4841246;29;20463;-71
2023/12/10 04:50:13;;;;;;;18.23;5.03;;;;;;;8.86;100.00;99983.72;4830729;29;20095;-72
2023/12/10 04:53:01;;;;;;;20.10;5.18;;;;;;;8.89;100.00;99983.16;4822511;29;20499;-72
2023/12/10 04:55:49;;;;;;;18.70;4.63;;;;;;;8.89;100.00;99979.63;4832863;29;20058;-71
2023/12/10 04:58:37;;;;;;;22.50;5.60;;;;;;;8.88;100.00;100003.25;4837180;29;20146;-71
2023/12/10 05:01:25;;;;;;;24.63;5.47;;;;;;;8.89;100.00;100002.16;4840537;29;20128;-71
2023/12/10 05:04:13;;;;;;;23.88;5.10;;;;;;;8.90;100.00;100001.09;4840633;29;20062;-72
2023/12/10 05:07:01;;;;;;;20.75;5.30;;;;;;;8.88;100.00;100010.59;4840513;29;20053;-72
2023/12/10 05:09:50;;;;;;;27.00;5.05;;;;;;;8.88;100.00;100025.00;4838888;29;20482;-70
2023/12/10 05:12:38;;;;;;;20.90;4.97;;;;;;;8.92;100.00;100017.09;4829830;29;20055;-74
2023/12/10 05:15:26;;;;;;;21.88;5.40;;;;;;;8.89;100.00;100023.09;4825795;29;20156;-71
2023/12/10 05:18:14;;;;;;;27.45;6.53;;;;;;;8.83;100.00;100045.94;4830373;29;20074;-72
2023/12/10 05:21:03;;;;;;;28.00;5.95;;;;;;;8.80;100.00;100033.69;4844436;29;20050;-71
2023/12/10 05:23:51;;;;;;;26.25;6.20;;;;;;;8.77;100.00;100031.53;4844585;29;20053;-70
2023/12/10 05:26:39;;;;;;;24.25;6.05;;;;;;;8.77;100.00;100039.69;4830917;29;20090;-71
2023/12/10 05:29:27;;;;;;;20.02;4.60;;;;;;;8.81;100.00;100051.63;4843941;29;20099;-71
2023/12/10 05:32:15;;;;;;;24.50;6.10;;;;;;;8.80;100.00;100058.13;4826294;29;20061;-71
2023/12/10 05:35:04;;;;;;;27.42;5.85;;;;;;;8.78;100.00;100035.06;4827748;29;20049;-71
2023/12/10 05:37:52;;;;;;;26.33;5.95;;;;;;;8.76;100.00;100027.22;4830260;29;20042;-70
2023/12/10 05:40:40;;;;;;;24.73;5.78;;;;;;;8.84;100.00;100056.50;4842996;29;20499;-72
2023/12/10 05:43:28;;;;;;;30.20;5.45;;;;;;;8.82;100.00;100077.69;4843804;29;20072;-72
2023/12/10 05:46:16;;;;;;;22.88;5.55;;;;;;;8.88;100.00;100054.88;4842791;29;20090;-71
2023/12/10 05:49:04;;;;;;;29.77;6.25;;;;;;;8.86;100.00;100070.63;4831358;29;20186;-71
2023/12/10 05:51:52;;;;;;;27.88;5.30;;;;;;;8.82;100.00;100072.25;4841488;29;20431;-71
2023/12/10 05:54:40;;;;;;;28.08;5.50;;;;;;;8.82;100.00;100094.00;4844136;29;20054;-71
2023/12/10 05:57:29;;;;;;;26.77;6.53;;;;;;;8.84;100.00;100094.53;4827963;29;20047;-72
2023/12/10 06:00:17;;;;;;;25.30;5.45;;;;;;;8.83;100.00;100098.34;4825826;29;20276;-71
2023/12/10 06:03:05;;;;;;;24.73;5.78;;;;;;;8.85;100.00;100120.63;4824435;29;20070;-71
2023/12/10 06:05:53;;;;;;;27.55;5.38;;;;;;;8.85;100.00;100125.22;4823383;29;20057;-71
2023/12/10 06:08:41;;;;;;;22.40;5.32;;;;;;;8.85;100.00;100126.06;4840252;29;20363;-72
2023/12/10 06:11:29;;;;;;;22.08;5.25;;;;;;;8.84;100.00;100134.47;4842306;29;20148;-72
2023/12/10 06:14:17;;;;;;;20.85;5.47;;;;;;;8.85;100.00;100146.97;4843066;29;20423;-72
2023/12/10 06:17:05;;;;;;;31.20;6.25;;;;;;;8.84;100.00;100161.66;4835854;29;20039;-72
2023/12/10 06:19:53;;;;;;;25.35;5.63;;;;;;;8.82;100.00;100170.06;4836355;29;20053;-73
2023/12/10 06:22:41;;;;;;;24.20;5.63;;;;;;;8.86;100.00;100157.56;4824901;29;20057;-72
2023/12/10 06:25:29;;;;;;;28.65;6.40;;;;;;;8.83;100.00;100160.03;4832485;29;20118;-71
2023/12/10 06:28:17;;;;;;;24.95;6.07;;;;;;;8.82;100.00;100156.47;4838582;29;20142;-72
2023/12/10 06:31:05;;;;;;;21.33;5.45;;;;;;;8.83;100.00;100176.31;4811058;29;20457;-72
2023/12/10 06:33:53;;;;;;;25.40;6.20;;;;;;;8.84;100.00;100184.19;4833850;29;20070;-72
2023/12/10 06:36:42;;;;;;;23.48;5.75;;;;;;;8.85;100.00;100198.56;4842394;29;20042;-72
2023/12/10 06:39:30;;;;;;;25.52;6.07;;;;;;;8.85;100.00;100196.69;4842351;29;20058;-72
2023/12/10 06:42:18;;;;;;;24.92;5.60;;;;;;;8.84;100.00;100203.19;4843275;29;20515;-72
2023/12/10 06:45:08;;;;;;;22.52;5.65;;;;;;;8.86;100.00;100202.94;4161487;29;10000701;-72
2023/12/10 06:47:56;;;;;;;28.98;5.93;;;;;;;8.86;100.00;100230.91;4823679;29;20121;-72
2023/12/10 06:50:44;;;;;;;30.52;6.35;;;;;;;8.85;100.00;100229.28;4833089;29;20126;-71
2023/12/10 06:53:32;;;;;;;32.75;6.75;;;;;;;8.90;100.00;100252.94;4820879;29;20476;-72
2023/12/10 06:56:20;;;;;;;28.50;5.40;;;;;;;8.87;100.00;100242.59;4826911;29;20468;-72
2023/12/10 06:59:08;;;;;;;29.25;6.53;;;;;;;8.84;100.00;100254.00;4816123;29;20146;-72
2023/12/10 07:01:56;;;;;;;28.05;6.30;;;;;;;8.83;100.00;100253.19;4821724;29;20103;-73
2023/12/10 07:04:44;;;;;;;26.95;6.13;;;;;;;8.84;100.00;100254.00;4820344;29;20070;-71
2023/12/10 07:07:32;;;;;;;26.75;6.53;;;;;;;8.80;100.00;100255.63;4821499;29;20054;-72
2023/12/10 07:10:23;;;;;;;29.48;6.25;;;;;;;8.79;100.00;100278.44;4834653;29;20215;-72
2023/12/10 07:13:11;;;;;;;29.50;6.35;;;;;;;8.78;100.00;100269.50;4820532;29;20062;-72
2023/12/10 07:15:59;;;;;;;26.77;5.80;;;;;;;8.78;100.00;100261.34;4795671;29;20183;-72
2023/12/10 07:18:47;;;;;;;24.25;5.80;;;;;;;8.76;100.00;100289.88;4816302;29;20053;-72
2023/12/10 07:21:35;;;;;;;25.92;5.57;;;;;;;8.82;100.00;100278.72;4820073;29;20057;-72
2023/12/10 07:24:23;;;;;;;25.33;5.93;;;;;;;8.80;100.00;100289.03;4820350;29;20145;-72
2023/12/10 07:27:11;;;;;;;24.75;6.22;;;;;;;8.84;100.00;100297.47;4822374;29;20087;-73
2023/12/10 07:29:59;;;;;;;21.80;4.93;;;;;;;8.83;100.00;100323.81;4833300;29;20060;-72
2023/12/10 07:32:48;;;;;;;23.52;5.15;;;;;;;8.80;100.00;100324.34;4822712;29;20058;-73
2023/12/10 07:35:36;;;;;;;25.75;6.20;;;;;;;8.80;100.00;100328.97;4821915;29;20042;-73
2023/12/10 07:38:24;;;;;;;26.60;6.53;;;;;;;8.80;100.00;100335.22;4822443;29;20137;-71
2023/12/10 07:41:13;;;;;;;24.35;6.05;;;;;;;8.78;100.00;100350.97;4832481;29;20057;-71
2023/12/10 07:44:01;;;;;;;22.98;5.43;;;;;;;8.77;100.00;100354.75;4816107;29;20505;-71
2023/12/10 07:46:49;;;;;;;24.83;6.07;;;;;;;8.78;100.00;100361.84;4843604;29;20061;-72
2023/12/10 07:49:37;;;;;;;22.75;5.60;;;;;;;8.77;100.00;100373.78;4838308;29;20065;-72
2023/12/10 07:52:25;;;;;;;25.95;6.28;;;;;;;8.77;100.00;100372.97;4824884;29;20141;-71
2023/12/10 07:55:13;;;;;;;28.25;6.95;;;;;;;8.78;100.00;100380.88;4811153;29;20129;-71
2023/12/10 07:58:01;;;;;;;22.80;5.80;;;;;;;8.78;100.00;100375.44;4823711;29;20194;-71
2023/12/10 08:00:50;;;;;;;32.03;5.72;;;;;;;8.79;100.00;100382.47;4829602;29;20052;-70
2023/12/10 08:03:38;;;;;;;25.77;6.25;;;;;;;8.82;100.00;100381.94;4846813;29;20135;-69
2023/12/10 08:06:26;;;;;;;23.23;5.90;;;;;;;8.82;100.00;100400.97;4843985;29;20092;-71
2023/12/10 08:09:14;;;;;;;19.23;5.18;;;;;;;8.80;100.00;100394.97;4851247;29;20053;-71
2023/12/10 08:12:02;;;;;;;28.90;6.25;;;;;;;8.79;100.00;100379.75;4847210;29;20057;-67
2023/12/10 08:14:50;;;;;;;27.17;6.75;;;;;;;8.82;100.00;100411.81;4844432;29;20068;-64
2023/12/10 08:17:39;;;;;;;24.65;6.28;;;;;;;8.82;100.00;100400.97;4843647;29;20150;-71
2023/12/10 08:20:27;;;;;;;20.58;5.72;;;;;;;8.82;100.00;100398.25;4800059;29;20508;-72
2023/12/10 08:23:15;;;;;;;23.83;5.72;;;;;;;8.84;100.00;100411.56;4824261;29;20070;-71
2023/12/10 08:26:04;;;;;;;31.40;6.78;;;;;;;8.81;100.00;100421.06;4828902;29;20049;-72
2023/12/10 08:28:52;;;;;;;23.25;5.60;;;;;;;8.82;100.00;100430.84;4842340;29;20058;-72
2023/12/10 08:31:41;;;;;;;24.10;5.57;;;;;;;8.79;100.00;100425.94;4843205;29;20050;-72
2023/12/10 08:34:29;;;;;;;23.85;5.65;;;;;;;8.78;100.00;100424.31;4843289;29;20054;-72
2023/12/10 08:37:17;;;;;;;21.58;5.80;;;;;;;8.79;100.00;100430.56;4829194;29;20091;-72
2023/12/10 08:40:08;;;;;;;23.85;5.38;;;;;;;8.78;100.00;100440.63;4841156;29;20133;-73
2023/12/10 08:42:56;;;;;;;27.88;5.95;;;;;;;8.79;100.00;100447.69;4846415;29;20138;-73
2023/12/10 08:45:44;;;;;;;30.02;6.20;;;;;;;8.78;100.00;100462.34;4845672;29;20046;-72
2023/12/10 08:48:32;;;;;;;27.48;6.13;;;;;;;8.82;100.00;100457.19;4845622;29;20130;-72
2023/12/10 08:51:21;;;;;;;21.98;5.35;;;;;;;8.80;100.00;100468.31;4826381;29;20053;-72
2023/12/10 08:54:09;;;;;;;23.85;5.60;;;;;;;8.80;100.00;100460.16;4826213;29;20054;-72
2023/12/10 08:56:57;;;;;;;23.98;5.00;;;;;;;8.80;100.00;100464.78;4827160;29;20062;-72
2023/12/10 08:59:45;;;;;;;27.80;6.05;;;;;;;8.79;100.00;100474.84;4831048;29;20064;-71
2023/12/10 09:02:33;;;;;;;26.80;5.68;;;;;;;8.79;100.00;100480.28;4846120;29;20057;-71
2023/12/10 09:05:21;;;;;;;25.95;5.65;;;;;;;8.78;100.00;100473.22;4844908;29;20057;-73
2023/12/10 09:08:10;;;;;;;30.65;6.00;;;;;;;8.81;100.00;100485.44;4831790;29;20598;-72
2023/12/10 09:11:03;;;;;;;28.05;5.88;;;;;;;8.80;100.00;100481.91;4835191;29;20054;-72
2023/12/10 09:13:52;;;;;;;27.92;5.53;;;;;;;8.80;100.00;100491.94;4814787;29;20055;-73
2023/12/10 09:16:40;;;;;;;24.70;5.85;;;;;;;8.81;100.00;100480.84;4827609;29;20054;-73
2023/12/10 09:19:31;;;;;;;25.35;5.20;;;;;;;8.80;100.00;100487.31;4828521;29;20084;-72
2023/12/10 09:22:19;;;;;;;30.17;6.68;;;;;;;8.84;100.00;100488.44;4813554;29;20423;-74
2023/12/10 09:25:10;;;;;;;28.98;8.55;;;;;;;8.83;100.00;100484.09;4827121;29;20053;-72
2023/12/10 09:27:58;;;;;;;26.08;6.22;;;;;;;8.82;100.00;100487.06;4828525;29;20054;-73
2023/12/10 09:30:46;;;;;;;21.65;4.90;;;;;;;8.82;100.00;100487.06;4827112;29;20066;-74
2023/12/10 09:33:34;;;;;;;28.30;6.30;;;;;;;8.81;100.00;100497.13;4826662;29;20137;-72
2023/12/10 09:36:23;;;;;;;25.52;5.35;;;;;;;8.82;100.00;100490.59;4827112;29;20062;-72
2023/12/10 09:39:11;;;;;;;24.50;5.97;;;;;;;8.83;100.00;100503.13;4826349;29;20046;-73
2023/12/10 09:41:59;;;;;;;27.67;6.25;;;;;;;8.85;100.00;100505.56;4825438;29;20538;-73
2023/12/10 09:44:47;;;;;;;24.80;5.80;;;;;;;8.86;100.00;100509.94;4827968;29;20058;-72
2023/12/10 09:47:35;;;;;;;23.33;6.57;;;;;;;8.87;100.00;100506.94;4828285;29;20054;-73
2023/12/10 09:50:24;;;;;;;25.52;5.68;;;;;;;8.89;100.00;100506.66;4825479;29;20111;-73
2023/12/10 09:53:13;;;;;;;22.70;5.95;;;;;;;8.89;100.00;100499.34;4825511;29;20061;-73
2023/12/10 09:56:01;;;;;;;33.03;8.15;;;;;;;8.93;100.00;100496.91;4827774;29;20055;-73
2023/12/10 09:58:50;;;;;;;27.13;5.78;;;;;;;8.93;100.00;100503.16;4826521;29;20078;-74
2023/12/10 10:01:38;;;;;;;24.88;5.82;;;;;;;8.93;100.00;100492.28;4826567;29;20042;-73
2023/12/10 10:04:27;;;;;;;21.60;6.55;;;;;;;8.94;100.00;100504.78;4827170;29;20058;-72
2023/12/10 10:07:15;;;;;;;17.92;5.10;;;;;;;8.95;100.00;100511.06;4827458;29;20054;-72
2023/12/10 10:10:05;;;;;;;27.83;6.75;;;;;;;8.99;100.00;100511.34;4826692;29;20153;-72
2023/12/10 10:12:54;;;;;;;27.77;6.57;;;;;;;8.98;100.00;100521.38;4815709;29;20514;-76
2023/12/10 10:15:43;;;;;;;32.08;8.07;;;;;;;9.01;100.00;100514.59;4826462;29;20111;-73
2023/12/10 10:18:32;;;;;;;23.05;5.40;;;;;;;9.01;100.00;100520.03;4839965;29;20046;-72
2023/12/10 10:21:21;;;;;;;25.52;5.95;;;;;;;8.99;100.00;100514.88;4845652;29;20414;-71
2023/12/10 10:24:09;;;;;;;26.80;6.53;;;;;;;9.03;100.00;100512.44;4844071;29;20517;-73
2023/12/10 10:26:57;;;;;;;23.75;6.47;;;;;;;9.01;100.00;100511.88;4843800;29;20050;-72
2023/12/10 10:29:48;;;;;;;29.15;6.28;;;;;;;9.05;100.00;100493.97;4826522;29;20058;-74
2023/12/10 10:32:37;;;;;;;29.58;6.38;;;;;;;9.05;100.00;100510.28;4825600;29;20530;-71
2023/12/10 10:35:26;;;;;;;29.23;6.18;;;;;;;9.04;100.00;100508.63;4824139;29;20126;-67
2023/12/10 10:38:16;;;;;;;30.23;6.68;;;;;;;9.08;100.00;100498.88;4838740;29;20182;-66
2023/12/10 10:41:04;;;;;;;30.45;6.20;;;;;;;9.11;100.00;100495.63;4817605;29;20089;-68
2023/12/10 10:43:52;;;;;;;29.27;5.65;;;;;;;9.12;100.00;100500.00;4830274;29;20129;-66
2023/12/10 10:46:41;;;;;;;24.17;5.38;;;;;;;9.13;100.00;100509.75;4840490;29;20129;-68
2023/12/10 10:49:30;;;;;;;29.20;6.28;;;;;;;9.12;100.00;100500.78;4823180;29;20065;-68
2023/12/10 10:52:27;;;;;;;24.92;6.07;;;;;;;9.13;100.00;100501.59;4823562;29;20054;-67
2023/12/10 10:55:16;;;;;;;20.88;5.10;;;;;;;9.13;100.00;100496.97;4823563;29;20058;-67
2023/12/10 10:58:24;;;;;;;28.60;5.68;;;;;;;9.17;100.00;100500.00;4813758;29;20050;-67
2023/12/10 11:01:41;;;;;;;23.48;6.05;;;;;;;9.17;100.00;100498.09;4843012;29;20053;-67
2023/12/10 11:04:40;;;;;;;27.70;7.30;;;;;;;9.23;100.00;100496.19;4842571;29;20503;-69
2023/12/10 11:07:28;;;;;;;20.50;4.95;;;;;;;9.22;100.00;100494.59;4833533;29;20061;-68
2023/12/10 11:10:17;;;;;;;25.33;5.55;;;;;;;9.21;100.00;100492.94;4799685;29;20058;-67
2023/12/10 11:13:05;;;;;;;25.35;5.35;;;;;;;9.27;100.00;100472.84;4824667;29;20054;-67
2023/12/10 11:15:57;;;;;;;20.17;5.20;;;;;;;9.30;100.00;100469.56;4824308;29;20077;-68
2023/12/10 11:18:53;;;;;;;19.77;4.90;;;;;;;9.32;100.00;100480.19;4841246;29;20060;-67
2023/12/10 11:21:42;;;;;;;;;;;;;;;9.33;100.00;100489.97;4844360;29;20054;-67
2023/12/10 11:24:30;;;;;;;20.13;5.82;;;;;;;9.38;100.00;100476.41;4842370;29;19925;-68
2023/12/10 11:27:18;;;;;;;24.85;5.50;;;;;;;9.43;100.00;100478.31;4832663;29;20133;-65
2023/12/10 11:30:07;;;;;;;25.38;6.50;;;;;;;9.49;100.00;100482.69;4786426;29;20050;-68
2023/12/10 11:32:55;;;;;;;19.55;5.18;;;;;;;9.48;100.00;100470.19;4823680;29;20050;-68
2023/12/10 11:35:43;;;;;;;22.95;5.20;;;;;;;9.46;100.00;100484.03;4825481;29;20063;-68
2023/12/10 11:38:52;;;;;;;23.35;5.57;;;;;;;9.49;100.00;100485.41;4841089;29;20128;-68
2023/12/10 11:41:42;;;;;;;19.50;5.03;;;;;;;9.45;100.00;100470.69;4842194;29;20506;-68
2023/12/10 11:44:46;;;;;;;24.98;6.22;;;;;;;9.44;100.00;100475.31;4830881;29;20050;-68
2023/12/10 11:47:36;;;;;;;21.35;5.47;;;;;;;9.45;100.00;100468.78;4816349;29;20058;-69
2023/12/10 11:50:24;;;;;;;22.00;5.32;;;;;;;9.48;100.00;100473.72;4825050;29;20058;-68
2023/12/10 11:53:14;;;;;;;27.45;5.72;;;;;;;9.50;100.00;100476.16;4822722;29;20051;-67
2023/12/10 11:56:02;;;;;;;20.20;5.22;;;;;;;9.50;100.00;100485.16;4823033;29;20518;-68
2023/12/10 11:58:50;;;;;;;19.25;4.95;;;;;;;9.53;100.00;100472.91;4824566;29;20129;-67
2023/12/10 12:01:38;;;;;;;24.25;5.32;;;;;;;9.51;100.00;100470.44;4824130;29;20058;-67
2023/12/10 12:04:28;;;;;;;21.40;4.80;;;;;;;9.53;100.00;100462.03;4811092;29;20118;-68
2023/12/10 12:07:26;;;;;;;26.45;5.65;;;;;;;9.58;100.00;100478.34;4836844;29;20106;-68
2023/12/10 12:10:17;;;;;;;25.13;5.85;;;;;;;9.58;100.00;100475.63;4829642;29;20463;-69
2023/12/10 12:13:06;;;;;;;20.67;4.90;;;;;;;9.57;100.00;100474.81;4842145;29;20058;-69
2023/12/10 12:15:54;;;;;;;23.75;4.90;;;;;;;9.57;100.00;100469.38;4839671;29;20046;-67
2023/12/10 12:18:42;;;;;;;25.83;5.50;;;;;;;9.56;100.00;100472.34;4829992;29;20062;-67
2023/12/10 12:21:30;;;;;;;27.35;6.00;;;;;;;9.53;100.00;100479.16;4835056;29;20062;-68
2023/12/10 12:24:18;;;;;;;21.98;6.15;;;;;;;9.51;100.00;100470.44;4843305;29;20081;-67
2023/12/10 12:27:07;;;;;;;21.02;6.05;;;;;;;9.56;100.00;100472.34;4854746;29;20057;-68
2023/12/10 12:29:55;;;;;;;21.17;5.32;;;;;;;9.65;100.00;100469.94;4843126;29;21867;-67
2023/12/10 12:32:43;;;;;;;21.35;5.55;;;;;;;9.64;100.00;100460.94;4858658;29;20062;-66
2023/12/10 12:35:32;;;;;;;22.25;5.82;;;;;;;9.60;100.00;100451.69;4856855;29;20046;-68
2023/12/10 12:38:20;;;;;;;23.08;6.13;;;;;;;9.59;100.00;100441.91;4840390;29;20050;-69
2023/12/10 12:41:08;;;;;;;30.45;7.00;;;;;;;9.55;100.00;100419.88;4833455;29;20066;-69
2023/12/10 12:43:56;;;;;;;36.42;7.53;;;;;;;9.50;100.00;100419.88;4837381;29;20422;-67
2023/12/10 12:46:44;;;;;;;33.10;7.05;;;;;;;9.49;100.00;100422.84;4834500;29;20130;-69
2023/12/10 12:49:32;;;;;;;28.35;6.72;;;;;;;9.49;100.00;100411.97;4841335;29;20061;-69
2023/12/10 12:52:21;;;;;;;27.65;6.38;;;;;;;9.51;100.00;100402.47;4822796;29;20053;-68
2023/12/10 12:55:09;;;;;;;23.92;6.45;;;;;;;9.52;100.00;100408.72;4841506;29;20047;-69
2023/12/10 12:57:57;;;;;;;27.08;6.85;;;;;;;9.55;100.00;100406.28;4834561;29;20106;-69
2023/12/10 13:00:47;;;;;;;22.85;6.40;;;;;;;9.56;100.00;100409.81;4828558;29;20050;-69